Time;durP1;ratioP1;P1;durP2;ratioP2;P2;SDS_P1;SDS_P2;PMS_P1;PMS_P2;Temp;Humidity;BMP_temperature;BMP_pressure;BME280_temperature;BME280_humidity;BME280_pressure;Samples;Min_cycle;Max_cycle;Signal;HPM_P1;HPM_P2
2021/10/09 00:01:26;;;;;;;5.57;3.28;;;;;;;;;;4916003;29;20035;-73
2021/10/09 00:03:52;;;;;;;5.65;2.70;;;;;;;;;;4915471;29;20055;-73
2021/10/09 00:06:19;;;;;;;5.28;2.80;;;;;;;;;;4916203;29;20080;-73
2021/10/09 00:08:45;;;;;;;5.40;3.22;;;;;;;;;;4913803;29;20044;-72
2021/10/09 00:11:20;;;;;;;6.78;3.17;;;;;;;;;;4910193;29;20135;-69
2021/10/09 00:13:46;;;;;;;4.85;3.40;;;;;;;;;;4915271;29;20032;-70
2021/10/09 00:16:13;;;;;;;4.10;3.00;;;;;;;;;;4916005;29;20055;-70
2021/10/09 00:18:39;;;;;;;6.82;2.95;;;;;;;;;;4915349;29;20031;-72
2021/10/09 00:21:05;;;;;;;5.68;3.30;;;;;;;;;;4914795;29;20039;-71
2021/10/09 00:23:31;;;;;;;4.95;3.30;;;;;;;;;;4915664;29;20032;-72
2021/10/09 00:25:57;;;;;;;3.97;2.88;;;;;;;;;;4915528;29;20510;-73
2021/10/09 00:28:24;;;;;;;8.38;3.40;;;;;;;;;;4914317;29;20032;-72
2021/10/09 00:30:50;;;;;;;4.65;3.30;;;;;;;;;;4915251;29;20446;-72
2021/10/09 00:33:16;;;;;;;6.80;3.20;;;;;;;;;;4914806;29;20016;-72
2021/10/09 00:35:42;;;;;;;4.90;3.00;;;;;;;;;;4915093;29;20036;-71
2021/10/09 00:38:09;;;;;;;9.57;3.53;;;;;;;;;;4912260;29;20024;-73
2021/10/09 00:40:35;;;;;;;4.65;3.25;;;;;;;;;;4914762;29;20126;-69
2021/10/09 00:43:01;;;;;;;6.05;3.53;;;;;;;;;;4915151;29;20035;-71
2021/10/09 00:45:27;;;;;;;4.35;3.22;;;;;;;;;;4921648;29;20028;-73
2021/10/09 00:47:53;;;;;;;6.57;3.70;;;;;;;;;;4913003;29;20028;-68
2021/10/09 00:50:20;;;;;;;6.22;3.67;;;;;;;;;;4915515;29;20024;-69
2021/10/09 00:52:47;;;;;;;7.82;3.40;;;;;;;;;;4914856;29;20035;-70
2021/10/09 00:55:14;;;;;;;6.82;3.67;;;;;;;;;;4915533;28;20036;-68
2021/10/09 00:57:40;;;;;;;6.25;3.40;;;;;;;;;;4914981;29;20032;-69
2021/10/09 01:00:07;;;;;;;6.60;3.25;;;;;;;;;;4915158;29;20025;-70
2021/10/09 01:02:37;;;;;;;7.47;3.40;;;;;;;;;;4915395;29;20119;-71
2021/10/09 01:05:03;;;;;;;6.75;3.55;;;;;;;;;;4912430;29;20032;-72
2021/10/09 01:07:29;;;;;;;8.27;3.55;;;;;;;;;;4915036;29;20025;-72
2021/10/09 01:09:55;;;;;;;10.50;3.80;;;;;;;;;;4913807;29;20059;-70
2021/10/09 01:12:21;;;;;;;5.60;4.00;;;;;;;;;;4915261;29;20071;-71
2021/10/09 01:14:48;;;;;;;5.30;3.30;;;;;;;;;;4913585;29;20036;-72
2021/10/09 01:17:14;;;;;;;5.53;3.58;;;;;;;;;;4922570;29;20368;-73
2021/10/09 01:19:41;;;;;;;4.85;3.10;;;;;;;;;;4914236;29;20563;-69
2021/10/09 01:22:08;;;;;;;6.15;3.00;;;;;;;;;;4915069;29;20395;-73
2021/10/09 01:24:35;;;;;;;5.97;3.28;;;;;;;;;;4914442;29;20454;-72
2021/10/09 01:27:01;;;;;;;5.07;3.30;;;;;;;;;;4914611;29;20522;-73
2021/10/09 01:29:27;;;;;;;7.07;3.50;;;;;;;;;;4914805;29;20051;-71
2021/10/09 01:31:53;;;;;;;6.60;3.42;;;;;;;;;;4914483;29;20032;-73
2021/10/09 01:34:21;;;;;;;8.43;3.75;;;;;;;;;;4916107;29;20032;-73
2021/10/09 01:36:47;;;;;;;5.95;2.97;;;;;;;;;;4909845;29;20036;-73
2021/10/09 01:39:15;;;;;;;5.88;3.60;;;;;;;;;;4913975;29;20045;-72
2021/10/09 01:41:42;;;;;;;6.10;3.67;;;;;;;;;;4914513;29;20495;-73
2021/10/09 01:44:08;;;;;;;4.70;3.15;;;;;;;;;;4914188;29;20032;-73
2021/10/09 01:46:35;;;;;;;6.45;3.28;;;;;;;;;;4914755;29;20023;-73
2021/10/09 01:49:01;;;;;;;5.15;3.22;;;;;;;;;;4915280;29;20035;-70
2021/10/09 01:51:29;;;;;;;5.85;3.15;;;;;;;;;;4919592;29;20035;-71
2021/10/09 01:53:55;;;;;;;7.72;3.40;;;;;;;;;;4914355;29;20494;-73
2021/10/09 01:56:21;;;;;;;5.50;3.05;;;;;;;;;;4914560;29;20493;-73
2021/10/09 01:58:47;;;;;;;5.07;2.72;;;;;;;;;;4914263;29;20522;-73
2021/10/09 02:01:13;;;;;;;5.32;3.13;;;;;;;;;;4914126;29;20478;-72
2021/10/09 02:03:39;;;;;;;3.78;2.60;;;;;;;;;;4914188;29;20394;-70
2021/10/09 02:06:05;;;;;;;5.13;3.13;;;;;;;;;;4916039;29;20084;-73
2021/10/09 02:08:31;;;;;;;4.18;2.65;;;;;;;;;;4917238;29;20044;-71
2021/10/09 02:24:06;;;;;;;4.15;2.45;;;;;;;;;;4896893;29;20059;-69
2021/10/09 02:24:57;;;;;;;4.60;2.90;;;;;;;;;;4896258;29;20064;-72
2021/10/09 02:27:23;;;;;;;3.58;2.70;;;;;;;;;;4893674;29;20123;-72
2021/10/09 02:29:49;;;;;;;4.57;2.50;;;;;;;;;;4895664;29;20023;-70
2021/10/09 02:32:15;;;;;;;4.75;2.83;;;;;;;;;;4896939;29;20129;-69
2021/10/09 02:34:41;;;;;;;5.43;2.50;;;;;;;;;;4895868;29;20037;-72
2021/10/09 02:37:09;;;;;;;5.63;2.60;;;;;;;;;;4896944;29;20033;-72
2021/10/09 02:39:35;;;;;;;6.28;2.78;;;;;;;;;;4896993;29;20033;-70
2021/10/09 02:42:01;;;;;;;5.30;2.65;;;;;;;;;;4896112;29;20123;-73
2021/10/09 02:44:27;;;;;;;4.53;2.90;;;;;;;;;;4896204;29;20400;-72
2021/10/09 02:46:56;;;;;;;4.13;2.70;;;;;;;;;;4896065;29;20040;-71
2021/10/09 02:49:26;;;;;;;4.10;2.90;;;;;;;;;;4896061;29;20043;-72
2021/10/09 02:51:53;;;;;;;5.57;2.80;;;;;;;;;;4896607;29;20177;-73
2021/10/09 02:54:19;;;;;;;3.78;2.70;;;;;;;;;;4914488;29;20048;-73
2021/10/09 02:56:45;;;;;;;6.07;2.90;;;;;;;;;;4915149;29;20074;-70
2021/10/09 02:59:13;;;;;;;6.07;2.80;;;;;;;;;;4914544;29;20030;-72
2021/10/09 03:01:39;;;;;;;4.55;3.03;;;;;;;;;;4917281;29;20064;-69
2021/10/09 03:04:05;;;;;;;5.90;3.00;;;;;;;;;;4917162;29;20490;-73
2021/10/09 03:06:31;;;;;;;3.50;2.40;;;;;;;;;;4916676;29;20388;-72
2021/10/09 03:08:57;;;;;;;3.70;2.60;;;;;;;;;;4916216;29;20052;-72
2021/10/09 03:11:26;;;;;;;4.18;2.95;;;;;;;;;;4916258;29;20034;-72
2021/10/09 03:13:52;;;;;;;4.25;3.05;;;;;;;;;;4915871;29;20155;-72
2021/10/09 03:16:18;;;;;;;4.05;3.05;;;;;;;;;;4916159;29;20047;-70
2021/10/09 03:18:44;;;;;;;5.32;3.03;;;;;;;;;;4915664;29;20162;-73
2021/10/09 03:21:10;;;;;;;5.45;3.08;;;;;;;;;;4921984;29;20032;-73
2021/10/09 03:23:36;;;;;;;4.93;2.88;;;;;;;;;;4916458;29;20058;-72
2021/10/09 03:26:04;;;;;;;4.82;3.13;;;;;;;;;;4916321;29;20032;-73
2021/10/09 03:28:30;;;;;;;5.53;3.22;;;;;;;;;;4916062;29;20048;-72
2021/10/09 03:30:56;;;;;;;6.82;2.90;;;;;;;;;;4916279;29;20036;-73
2021/10/09 03:33:22;;;;;;;4.28;2.95;;;;;;;;;;4915515;29;20079;-72
2021/10/09 03:35:48;;;;;;;6.40;3.08;;;;;;;;;;4916527;29;20036;-73
2021/10/09 03:38:14;;;;;;;6.57;3.10;;;;;;;;;;4913339;29;20038;-72
2021/10/09 03:40:44;;;;;;;4.80;3.10;;;;;;;;;;4915776;29;20083;-73
2021/10/09 03:43:14;;;;;;;3.60;3.10;;;;;;;;;;4915942;29;20425;-71
2021/10/09 03:45:50;;;;;;;5.03;2.88;;;;;;;;;;4914094;29;20541;-71
2021/10/09 03:48:25;;;;;;;5.95;3.20;;;;;;;;;;4926584;29;20032;-72
2021/10/09 03:53:37;;;;;;;5.00;3.20;;;;;;;;;;4893802;29;20036;-72
2021/10/09 03:56:04;;;;;;;3.80;3.00;;;;;;;;;;4888925;29;20422;-70
2021/10/09 03:58:32;;;;;;;6.35;3.13;;;;;;;;;;4892673;29;20168;-72
2021/10/09 04:00:58;;;;;;;4.32;2.97;;;;;;;;;;4893645;29;20041;-73
2021/10/09 04:03:25;;;;;;;5.03;2.83;;;;;;;;;;4896095;29;20064;-70
2021/10/09 04:05:51;;;;;;;4.20;2.90;;;;;;;;;;4894479;29;20152;-69
2021/10/09 04:08:17;;;;;;;6.13;3.20;;;;;;;;;;4899840;29;20041;-70
2021/10/09 04:10:45;;;;;;;8.70;3.30;;;;;;;;;;4887192;29;20084;-70
2021/10/09 04:13:11;;;;;;;6.03;3.28;;;;;;;;;;4894068;29;20163;-69
2021/10/09 04:15:38;;;;;;;6.15;3.53;;;;;;;;;;4895151;29;20044;-70
2021/10/09 04:18:06;;;;;;;6.32;3.50;;;;;;;;;;4891113;29;20044;-70
2021/10/09 04:20:32;;;;;;;9.80;3.47;;;;;;;;;;4890293;29;20084;-70
2021/10/09 04:22:58;;;;;;;6.72;3.25;;;;;;;;;;4886269;29;20073;-71
2021/10/09 04:25:24;;;;;;;6.20;3.67;;;;;;;;;;4891938;29;20040;-69
2021/10/09 04:27:50;;;;;;;5.25;3.40;;;;;;;;;;4891810;29;20032;-71
2021/10/09 04:30:16;;;;;;;5.50;3.60;;;;;;;;;;4891880;29;20045;-70
2021/10/09 04:32:47;;;;;;;5.30;3.60;;;;;;;;;;4915320;29;20032;-71
2021/10/09 04:35:13;;;;;;;5.80;3.67;;;;;;;;;;4915399;29;20024;-72
2021/10/09 04:37:39;;;;;;;4.85;3.20;;;;;;;;;;4911061;29;20095;-73
2021/10/09 04:40:10;;;;;;;6.88;3.70;;;;;;;;;;4930249;29;20063;-73
2021/10/09 04:42:39;;;;;;;6.40;3.65;;;;;;;;;;4916442;29;20155;-74
2021/10/09 04:45:05;;;;;;;5.30;3.58;;;;;;;;;;4914245;29;20063;-69
2021/10/09 04:47:39;;;;;;;7.13;3.38;;;;;;;;;;4915295;29;20092;-69
2021/10/09 04:50:05;;;;;;;4.43;3.58;;;;;;;;;;4917701;29;20024;-69
2021/10/09 04:52:32;;;;;;;4.72;3.55;;;;;;;;;;4915026;29;20039;-70
2021/10/09 04:55:00;;;;;;;4.38;3.55;;;;;;;;;;4913589;29;20032;-72
2021/10/09 04:57:26;;;;;;;4.22;3.55;;;;;;;;;;4915677;29;20549;-72
2021/10/09 04:59:53;;;;;;;5.60;3.70;;;;;;;;;;4920600;29;20446;-70
2021/10/09 05:02:19;;;;;;;4.80;3.53;;;;;;;;;;4918721;29;20038;-71
2021/10/09 05:04:45;;;;;;;5.70;3.58;;;;;;;;;;4914500;29;20762;-72
2021/10/09 05:07:12;;;;;;;5.70;3.75;;;;;;;;;;4916063;29;20056;-74
2021/10/09 05:09:38;;;;;;;7.57;4.60;;;;;;;;;;4919629;29;20134;-72
2021/10/09 05:12:09;;;;;;;5.75;4.18;;;;;;;;;;4914975;29;20466;-74
2021/10/09 05:14:35;;;;;;;5.78;3.70;;;;;;;;;;4914162;29;20032;-68
2021/10/09 05:17:01;;;;;;;7.13;3.60;;;;;;;;;;4913763;29;20128;-68
2021/10/09 05:19:27;;;;;;;6.18;3.78;;;;;;;;;;4914821;29;20032;-68
2021/10/09 05:21:53;;;;;;;5.32;3.85;;;;;;;;;;4915361;29;20549;-68
2021/10/09 05:24:19;;;;;;;7.88;4.07;;;;;;;;;;4914893;29;20063;-71
2021/10/09 05:26:45;;;;;;;5.28;3.70;;;;;;;;;;4915320;29;20024;-70
2021/10/09 05:29:18;;;;;;;11.50;6.72;;;;;;;;;;4913630;29;20028;-76
2021/10/09 05:31:46;;;;;;;14.38;8.30;;;;;;;;;;4900365;29;20024;-73
2021/10/09 05:34:13;;;;;;;14.68;8.00;;;;;;;;;;4911786;29;20024;-75
2021/10/09 05:36:39;;;;;;;11.18;6.47;;;;;;;;;;4916905;29;20100;-75
2021/10/09 05:39:05;;;;;;;14.15;8.32;;;;;;;;;;4914103;29;20123;-72
2021/10/09 05:41:31;;;;;;;15.18;8.25;;;;;;;;;;4920981;29;20525;-68
2021/10/09 05:43:57;;;;;;;11.25;6.43;;;;;;;;;;4915409;29;20032;-74
2021/10/09 05:47:00;;;;;;;9.07;5.57;;;;;;;;;;4920323;29;20040;-70
2021/10/09 05:49:31;;;;;;;16.45;10.23;;;;;;;;;;4839850;29;20038;-71
2021/10/09 05:52:12;;;;;;;9.38;5.25;;;;;;;;;;4826708;29;20124;-70
2021/10/09 05:57:36;;;;;;;6.72;5.00;;;;;;;;;;4854484;29;20146;-74
2021/10/09 07:00:46;;;;;;;10.80;6.65;;;;;;;;;;4972534;28;20117;-72
2021/10/09 07:03:16;;;;;;;13.02;7.20;;;;;;;;;;4975401;28;20493;-69
2021/10/09 07:05:42;;;;;;;12.43;8.43;;;;;;;;;;4976298;28;20564;-68
2021/10/09 07:08:09;;;;;;;16.30;10.48;;;;;;;;;;4975991;28;20536;-78
2021/10/09 07:10:40;;;;;;;19.95;12.10;;;;;;;;;;4965422;28;20493;-75
2021/10/09 07:13:06;;;;;;;23.50;14.88;;;;;;;;;;4958343;28;20118;-75
2021/10/09 07:15:57;;;;;;;26.60;16.35;;;;;;;;;;4972394;28;20054;-71
2021/10/09 07:18:23;;;;;;;27.38;17.33;;;;;;;;;;4957895;28;20102;-72
2021/10/09 07:20:52;;;;;;;25.52;16.98;;;;;;;;;;4968546;28;20110;-76
2021/10/09 07:23:21;;;;;;;22.50;15.48;;;;;;;;;;4969514;28;20031;-75
2021/10/09 07:25:56;;;;;;;22.73;15.45;;;;;;;;;;4947172;29;20023;-73
2021/10/09 07:28:27;;;;;;;23.83;16.90;;;;;;;;;;5262616;23;20095;-76
2021/10/09 07:30:59;;;;;;;21.65;15.48;;;;;;;;;;5057388;23;20075;-79
2021/10/09 07:33:46;;;;;;;21.42;14.80;;;;;;;;;;4946261;29;20020;-80
2021/10/09 07:36:13;;;;;;;21.17;15.70;;;;;;;;;;4937290;29;20028;-72
2021/10/09 07:39:05;;;;;;;22.00;16.42;;;;;;;;;;4922532;29;20039;-78
2021/10/09 07:41:34;;;;;;;24.45;15.77;;;;;;;;;;4904284;29;20032;-70
2021/10/09 07:44:01;;;;;;;25.75;15.75;;;;;;;;;;4908155;29;20045;-72
2021/10/09 07:46:28;;;;;;;23.13;16.33;;;;;;;;;;4909363;29;20617;-74
2021/10/09 07:49:01;;;;;;;21.27;15.07;;;;;;;;;;4915525;29;20144;-74
2021/10/09 07:51:30;;;;;;;21.88;15.85;;;;;;;;;;4878330;29;20108;-72
2021/10/09 07:53:56;;;;;;;24.17;15.15;;;;;;;;;;4883592;29;20880;-76
2021/10/09 07:56:24;;;;;;;18.75;14.60;;;;;;;;;;4894429;29;20051;-77
2021/10/09 07:58:50;;;;;;;20.45;13.98;;;;;;;;;;4904015;28;20112;-70
2021/10/09 08:01:16;;;;;;;19.45;14.50;;;;;;;;;;4902462;29;20076;-69
2021/10/09 08:03:44;;;;;;;18.85;13.95;;;;;;;;;;4905076;29;20028;-76
2021/10/09 08:06:13;;;;;;;16.75;12.80;;;;;;;;;;4891386;29;20045;-70
2021/10/09 08:08:39;;;;;;;20.02;13.82;;;;;;;;;;4912213;29;20040;-76
2021/10/09 08:11:07;;;;;;;18.55;13.70;;;;;;;;;;4881813;29;20131;-69
2021/10/09 08:13:35;;;;;;;20.27;14.38;;;;;;;;;;4889806;29;20068;-70
2021/10/09 08:16:02;;;;;;;19.15;13.13;;;;;;;;;;4895357;29;20040;-71
2021/10/09 08:18:28;;;;;;;20.85;12.77;;;;;;;;;;4915878;29;20525;-70
2021/10/09 08:21:00;;;;;;;15.18;11.13;;;;;;;;;;4941239;29;20023;-72
2021/10/09 08:23:43;;;;;;;17.67;11.18;;;;;;;;;;4955166;28;20032;-79
2021/10/09 08:39:42;;;;;;;11.50;7.68;;;;;;;;;;4952479;28;20431;-69
2021/10/09 08:42:10;;;;;;;10.57;7.70;;;;;;;;;;4952202;28;20085;-70
2021/10/09 08:44:44;;;;;;;9.50;7.30;;;;;;;;;;4935167;29;20090;-68
2021/10/09 08:49:58;;;;;;;8.18;5.95;;;;;;;;;;4950576;28;19910;-69
2021/10/09 08:52:24;;;;;;;8.20;6.35;;;;;;;;;;4953691;28;20086;-70
2021/10/09 08:57:35;;;;;;;9.93;6.93;;;;;;;;;;4978009;23;20063;-78
2021/10/09 09:00:07;;;;;;;9.98;6.75;;;;;;;;;;4939733;29;20477;-77
2021/10/09 09:02:40;;;;;;;10.50;6.43;;;;;;;;;;4941743;29;20404;-79
2021/10/09 09:33:38;;;;;;;9.23;6.70;;;;;;;;;;4898581;29;20033;-75
2021/10/09 09:41:13;;;;;;;7.53;5.75;;;;;;;;;;4900117;29;20120;-74
2021/10/09 09:43:39;;;;;;;6.20;5.07;;;;;;;;;;4911934;29;20048;-74
2021/10/09 09:46:11;;;;;;;6.05;4.63;;;;;;;;;;4921404;29;20028;-75
2021/10/09 09:48:38;;;;;;;5.72;4.55;;;;;;;;;;4923092;29;20032;-74
2021/10/09 09:51:06;;;;;;;6.60;4.60;;;;;;;;;;4923347;29;20043;-74
2021/10/09 09:53:34;;;;;;;6.75;4.75;;;;;;;;;;4923011;29;20393;-73
2021/10/09 09:56:01;;;;;;;5.95;5.18;;;;;;;;;;4915950;29;20099;-71
2021/10/09 09:58:29;;;;;;;7.65;5.50;;;;;;;;;;4927794;29;20570;-74
2021/10/09 10:00:57;;;;;;;8.82;5.30;;;;;;;;;;4927723;29;20024;-75
2021/10/09 10:03:28;;;;;;;6.85;5.30;;;;;;;;;;4918100;29;20036;-74
2021/10/09 10:05:55;;;;;;;6.78;5.30;;;;;;;;;;4927369;29;20028;-76
2021/10/09 10:08:21;;;;;;;7.60;5.90;;;;;;;;;;4921472;29;20047;-74
2021/10/09 10:10:51;;;;;;;7.28;6.00;;;;;;;;;;4918895;29;20039;-75
2021/10/09 10:13:17;;;;;;;8.85;6.28;;;;;;;;;;4918462;29;20024;-72
2021/10/09 10:15:43;;;;;;;7.30;5.40;;;;;;;;;;4919116;29;20382;-74
2021/10/09 10:18:12;;;;;;;8.35;6.10;;;;;;;;;;4919003;29;20032;-75
2021/10/09 10:20:48;;;;;;;6.47;5.65;;;;;;;;;;4918536;29;20035;-72
2021/10/09 10:23:32;;;;;;;7.97;6.00;;;;;;;;;;4918338;29;20498;-74
2021/10/09 10:26:18;;;;;;;9.52;6.78;;;;;;;;;;4918737;29;20036;-71
2021/10/09 10:28:44;;;;;;;11.20;7.45;;;;;;;;;;4912613;29;20168;-75
2021/10/09 10:31:10;;;;;;;9.40;7.95;;;;;;;;;;4919244;29;20031;-73
2021/10/09 10:33:39;;;;;;;12.88;9.05;;;;;;;;;;4918648;29;20090;-74
2021/10/09 10:36:05;;;;;;;12.07;8.70;;;;;;;;;;4916372;29;20017;-74
2021/10/09 10:38:37;;;;;;;13.43;9.40;;;;;;;;;;4935390;29;20020;-73
2021/10/09 10:41:04;;;;;;;15.05;10.00;;;;;;;;;;4934446;29;20035;-74
2021/10/09 10:43:37;;;;;;;11.82;9.20;;;;;;;;;;4918331;29;20120;-74
2021/10/09 10:46:07;;;;;;;14.20;10.25;;;;;;;;;;4923824;29;20092;-75
2021/10/09 10:48:43;;;;;;;16.13;11.13;;;;;;;;;;4919497;29;20080;-75
2021/10/09 10:51:28;;;;;;;11.82;9.60;;;;;;;;;;4918168;29;20013;-70
2021/10/09 10:54:04;;;;;;;11.05;8.60;;;;;;;;;;4921770;29;20024;-74
2021/10/09 10:56:30;;;;;;;13.93;9.98;;;;;;;;;;4913924;29;20052;-71
2021/10/09 10:59:16;;;;;;;17.00;10.93;;;;;;;;;;4917584;29;20063;-73
2021/10/09 11:01:43;;;;;;;13.52;10.48;;;;;;;;;;4900495;29;20044;-72
2021/10/09 11:04:09;;;;;;;15.30;10.38;;;;;;;;;;4916172;29;20036;-74
2021/10/09 11:06:35;;;;;;;15.85;11.60;;;;;;;;;;4918434;29;20076;-75
2021/10/09 11:09:11;;;;;;;15.02;11.45;;;;;;;;;;4920856;29;20080;-74
2021/10/09 11:11:45;;;;;;;17.45;11.55;;;;;;;;;;4917726;29;20074;-73
2021/10/09 11:14:30;;;;;;;16.35;11.63;;;;;;;;;;4917153;29;20020;-74
2021/10/09 11:17:00;;;;;;;16.58;11.38;;;;;;;;;;4915080;29;20064;-73
2021/10/09 11:19:47;;;;;;;13.32;9.15;;;;;;;;;;4918114;29;20034;-73
2021/10/09 11:22:14;;;;;;;13.80;11.00;;;;;;;;;;4919382;29;20408;-74
2021/10/09 11:24:45;;;;;;;14.35;10.07;;;;;;;;;;4920791;29;20028;-73
2021/10/09 11:27:13;;;;;;;12.00;8.57;;;;;;;;;;4916045;29;20060;-74
2021/10/09 11:29:40;;;;;;;14.10;9.98;;;;;;;;;;4916588;29;20378;-73
2021/10/09 11:32:08;;;;;;;13.75;10.07;;;;;;;;;;4915374;29;20381;-74
2021/10/09 11:34:56;;;;;;;12.70;8.90;;;;;;;;;;4922146;29;20041;-74
2021/10/09 11:37:22;;;;;;;14.52;10.35;;;;;;;;;;4917232;29;20075;-75
2021/10/09 11:39:50;;;;;;;18.63;10.10;;;;;;;;;;4915295;29;20421;-74
2021/10/09 11:42:19;;;;;;;17.80;10.40;;;;;;;;;;4917035;29;20024;-73
2021/10/09 11:45:03;;;;;;;13.73;9.57;;;;;;;;;;4914633;29;20096;-75
2021/10/09 11:53:33;;;;;;;13.88;8.57;;;;;;;;;;4913452;29;20028;-73
2021/10/09 11:56:07;;;;;;;11.50;8.48;;;;;;;;;;4915878;29;20055;-73
2021/10/09 11:58:44;;;;;;;10.68;7.85;;;;;;;;;;4913344;29;20217;-72
2021/10/09 12:01:30;;;;;;;11.50;7.68;;;;;;;;;;4918672;29;20055;-76
2021/10/09 12:04:11;;;;;;;16.75;9.13;;;;;;;;;;4901273;29;20055;-74
2021/10/09 12:06:53;;;;;;;15.20;8.80;;;;;;;;;;4919158;29;20129;-71
2021/10/09 12:10:36;;;;;;;11.20;7.85;;;;;;;;;;4898526;29;20036;-76
2021/10/09 12:12:35;;;;;;;10.15;7.57;;;;;;;;;;4904044;29;20030;-72
2021/10/09 12:15:04;;;;;;;14.00;7.43;;;;;;;;;;4913487;29;20478;-72
2021/10/09 12:17:34;;;;;;;15.63;8.45;;;;;;;;;;4919068;29;20032;-70
2021/10/09 12:20:06;;;;;;;10.25;7.63;;;;;;;;;;4919703;29;20154;-72
2021/10/09 12:22:42;;;;;;;13.00;8.27;;;;;;;;;;4917012;29;20059;-74
2021/10/09 12:25:18;;;;;;;13.25;8.90;;;;;;;;;;4916139;29;20111;-74
2021/10/09 12:27:44;;;;;;;12.68;8.43;;;;;;;;;;4912766;29;20482;-72
2021/10/09 12:30:16;;;;;;;12.48;8.63;;;;;;;;;;4919736;29;20099;-74
2021/10/09 12:32:47;;;;;;;9.00;6.40;;;;;;;;;;4916107;29;20079;-74
2021/10/09 12:35:22;;;;;;;11.77;8.43;;;;;;;;;;4899517;29;20027;-71
2021/10/09 12:37:55;;;;;;;12.18;8.38;;;;;;;;;;4923594;29;20497;-72
2021/10/09 12:40:22;;;;;;;;;;;;;;;;;;4921087;29;20056;-69
2021/10/09 12:42:49;;;;;;;12.07;7.30;;;;;;;;;;4915468;29;19951;-71
2021/10/09 12:45:16;;;;;;;12.45;8.50;;;;;;;;;;4914608;29;20497;-69
2021/10/09 12:47:43;;;;;;;12.63;9.30;;;;;;;;;;4915502;29;20103;-70
2021/10/09 12:50:09;;;;;;;15.00;9.75;;;;;;;;;;4913551;29;20040;-73
2021/10/09 12:52:35;;;;;;;17.08;10.35;;;;;;;;;;4915761;29;20075;-72
2021/10/09 12:55:03;;;;;;;14.15;9.57;;;;;;;;;;4918319;29;20505;-72
2021/10/09 12:57:30;;;;;;;15.27;10.18;;;;;;;;;;4915402;29;20056;-68
2021/10/09 12:59:56;;;;;;;16.38;10.60;;;;;;;;;;4914135;29;20047;-70
2021/10/09 13:02:28;;;;;;;17.50;11.98;;;;;;;;;;4915791;29;20025;-72
2021/10/09 13:04:55;;;;;;;17.80;12.02;;;;;;;;;;4911463;29;20478;-69
2021/10/09 13:07:21;;;;;;;19.40;11.95;;;;;;;;;;4908150;29;20032;-69
2021/10/09 13:09:47;;;;;;;17.48;12.50;;;;;;;;;;4915267;29;20052;-71
2021/10/09 13:12:14;;;;;;;16.20;10.13;;;;;;;;;;4901479;29;20088;-69
2021/10/09 13:14:40;;;;;;;16.48;10.18;;;;;;;;;;4916064;29;20048;-70
2021/10/09 13:17:06;;;;;;;17.05;10.48;;;;;;;;;;4918291;29;20119;-72
2021/10/09 13:19:32;;;;;;;17.13;11.82;;;;;;;;;;4923145;29;20549;-70
2021/10/09 13:21:58;;;;;;;17.17;12.48;;;;;;;;;;4915940;29;20024;-71
2021/10/09 13:24:24;;;;;;;18.55;12.00;;;;;;;;;;4898544;29;20032;-74
2021/10/09 13:26:51;;;;;;;14.27;10.05;;;;;;;;;;4915815;29;20029;-70
2021/10/09 13:29:17;;;;;;;15.35;10.27;;;;;;;;;;4916100;29;20020;-69
2021/10/09 13:31:43;;;;;;;16.98;11.77;;;;;;;;;;4915756;29;20589;-71
2021/10/09 13:34:11;;;;;;;19.27;12.68;;;;;;;;;;4915696;29;20028;-72
2021/10/09 13:36:38;;;;;;;19.35;12.30;;;;;;;;;;4915043;29;20050;-71
2021/10/09 13:39:04;;;;;;;21.50;13.60;;;;;;;;;;4915342;29;20024;-70
2021/10/09 13:41:30;;;;;;;20.92;14.38;;;;;;;;;;4915262;29;20527;-71
2021/10/09 13:43:56;;;;;;;26.23;16.98;;;;;;;;;;4915694;29;20024;-70
2021/10/09 13:46:27;;;;;;;33.33;18.83;;;;;;;;;;4914980;29;20042;-69
2021/10/09 13:48:53;;;;;;;26.15;16.58;;;;;;;;;;4915367;29;20036;-71
2021/10/09 13:51:19;;;;;;;27.27;18.52;;;;;;;;;;4906410;29;20020;-73
2021/10/09 13:53:45;;;;;;;24.27;16.42;;;;;;;;;;4915377;29;20032;-70
2021/10/09 13:56:12;;;;;;;20.88;14.23;;;;;;;;;;4912052;29;20052;-72
2021/10/09 13:58:39;;;;;;;21.08;14.05;;;;;;;;;;4913321;29;20028;-72
2021/10/09 14:01:05;;;;;;;18.60;13.32;;;;;;;;;;4907750;29;20447;-70
2021/10/09 14:03:33;;;;;;;19.83;12.68;;;;;;;;;;4918459;29;20355;-74
2021/10/09 14:06:00;;;;;;;19.58;14.45;;;;;;;;;;4917385;29;20028;-71
2021/10/09 14:08:26;;;;;;;21.42;15.07;;;;;;;;;;4918050;29;20040;-70
2021/10/09 14:10:54;;;;;;;25.33;16.77;;;;;;;;;;4918679;29;20028;-70
2021/10/09 14:13:21;;;;;;;23.77;16.10;;;;;;;;;;4919198;29;20107;-73
2021/10/09 14:15:47;;;;;;;27.00;17.60;;;;;;;;;;4918731;29;20034;-72
2021/10/09 14:18:16;;;;;;;26.48;17.85;;;;;;;;;;4918222;29;20406;-69
2021/10/09 14:20:43;;;;;;;28.83;19.02;;;;;;;;;;4918955;29;20075;-71
2021/10/09 14:23:09;;;;;;;33.90;19.92;;;;;;;;;;4918580;29;20028;-71
2021/10/09 14:25:35;;;;;;;32.50;20.15;;;;;;;;;;4918728;29;20040;-69
2021/10/09 14:28:01;;;;;;;29.88;21.42;;;;;;;;;;4918821;29;20156;-71
2021/10/09 14:30:28;;;;;;;30.52;21.15;;;;;;;;;;4918204;29;20050;-72
2021/10/09 14:32:54;;;;;;;34.25;22.60;;;;;;;;;;4918586;29;20028;-74
2021/10/09 14:35:20;;;;;;;33.00;21.85;;;;;;;;;;4918341;29;20083;-69
2021/10/09 14:37:46;;;;;;;33.45;21.17;;;;;;;;;;4917725;29;20036;-70
2021/10/09 14:40:13;;;;;;;33.15;21.92;;;;;;;;;;4917659;29;20106;-71
2021/10/09 14:42:39;;;;;;;34.20;20.52;;;;;;;;;;4918328;29;20020;-70
2021/10/09 14:45:05;;;;;;;26.98;18.15;;;;;;;;;;4918532;29;20020;-68
2021/10/09 14:53:07;;;;;;;29.23;17.60;;;;;;;;;;4918569;29;20164;-70
2021/10/09 14:56:28;;;;;;;21.63;14.93;;;;;;;;;;4918825;29;20111;-71
2021/10/09 15:20:06;;;;;;;21.90;13.77;;;;;;;;;;4918050;29;20039;-70
2021/10/09 15:22:32;;;;;;;25.38;15.65;;;;;;;;;;4917334;29;20036;-72
2021/10/09 15:24:59;;;;;;;23.45;15.30;;;;;;;;;;4917618;29;20146;-71
2021/10/09 15:27:26;;;;;;;20.27;14.20;;;;;;;;;;4917754;29;20103;-71
2021/10/09 15:29:53;;;;;;;22.23;14.60;;;;;;;;;;4917701;29;20083;-69
2021/10/09 15:32:19;;;;;;;21.55;14.73;;;;;;;;;;4919973;29;20063;-70
2021/10/09 15:34:45;;;;;;;22.02;13.23;;;;;;;;;;4917603;29;20072;-69
2021/10/09 15:37:11;;;;;;;19.15;13.63;;;;;;;;;;4917299;29;20461;-70
2021/10/09 15:39:37;;;;;;;20.23;14.23;;;;;;;;;;4917440;29;20024;-72
2021/10/09 15:42:04;;;;;;;21.00;14.07;;;;;;;;;;4917111;29;20028;-72
2021/10/09 15:44:30;;;;;;;22.80;15.57;;;;;;;;;;4915433;29;20051;-71
2021/10/09 15:46:56;;;;;;;20.88;15.02;;;;;;;;;;4917260;29;20039;-70
2021/10/09 15:49:23;;;;;;;20.98;15.43;;;;;;;;;;4899437;29;20467;-71
2021/10/09 15:51:49;;;;;;;26.10;15.95;;;;;;;;;;4916680;29;20597;-71
2021/10/09 15:54:15;;;;;;;25.60;15.68;;;;;;;;;;4917001;29;20024;-71
2021/10/09 15:56:41;;;;;;;24.27;14.68;;;;;;;;;;4916519;29;20119;-71
2021/10/09 15:59:07;;;;;;;21.63;14.95;;;;;;;;;;4917212;29;20124;-72
2021/10/09 16:01:33;;;;;;;22.83;15.55;;;;;;;;;;4917146;29;20032;-70
2021/10/09 16:04:01;;;;;;;21.35;14.40;;;;;;;;;;4917144;29;20054;-72
2021/10/09 16:06:27;;;;;;;20.55;14.30;;;;;;;;;;4916855;29;20261;-69
2021/10/09 16:08:54;;;;;;;21.92;14.77;;;;;;;;;;4916927;29;20024;-73
2021/10/09 16:11:20;;;;;;;20.08;13.48;;;;;;;;;;4916966;29;20076;-72
2021/10/09 16:13:46;;;;;;;21.80;14.73;;;;;;;;;;4916578;29;20439;-70
2021/10/09 16:16:13;;;;;;;24.20;15.60;;;;;;;;;;4916844;29;20415;-71
2021/10/09 16:18:39;;;;;;;21.60;15.18;;;;;;;;;;4916452;29;20390;-71
2021/10/09 16:21:05;;;;;;;20.35;14.45;;;;;;;;;;4916993;29;20031;-72
2021/10/09 16:23:31;;;;;;;21.15;15.18;;;;;;;;;;4916614;29;20430;-72
2021/10/09 16:25:57;;;;;;;22.13;15.60;;;;;;;;;;4916130;29;20048;-70
2021/10/09 16:28:23;;;;;;;30.23;17.20;;;;;;;;;;4916269;29;20470;-70
2021/10/09 16:30:49;;;;;;;24.95;17.27;;;;;;;;;;4917306;29;20393;-70
2021/10/09 16:33:15;;;;;;;28.55;18.42;;;;;;;;;;4916212;29;20072;-70
2021/10/09 16:35:41;;;;;;;29.35;19.48;;;;;;;;;;4916169;29;20023;-72
2021/10/09 16:38:07;;;;;;;33.10;22.02;;;;;;;;;;4916581;29;20486;-71
2021/10/09 16:40:34;;;;;;;34.58;21.27;;;;;;;;;;4916229;29;20505;-70
2021/10/09 16:43:01;;;;;;;40.15;24.42;;;;;;;;;;4915127;29;20052;-70
2021/10/09 16:45:28;;;;;;;39.60;24.80;;;;;;;;;;4903488;29;20373;-71
2021/10/09 16:47:54;;;;;;;40.08;25.00;;;;;;;;;;4916445;29;20436;-71
2021/10/09 16:50:20;;;;;;;34.53;21.58;;;;;;;;;;4915446;29;20166;-70
2021/10/09 16:52:46;;;;;;;35.65;22.45;;;;;;;;;;4916090;29;20039;-72
2021/10/09 16:55:12;;;;;;;35.47;23.50;;;;;;;;;;4915458;29;20107;-71
2021/10/09 16:57:39;;;;;;;37.33;23.00;;;;;;;;;;4912385;29;20059;-72
2021/10/09 17:00:05;;;;;;;35.05;22.75;;;;;;;;;;4916098;29;20048;-70
2021/10/09 17:02:32;;;;;;;34.60;22.38;;;;;;;;;;4912934;29;20031;-77
2021/10/09 17:04:59;;;;;;;35.97;22.10;;;;;;;;;;4921666;29;20115;-70
2021/10/09 17:07:25;;;;;;;41.47;24.38;;;;;;;;;;4916650;29;20032;-67
2021/10/09 17:09:55;;;;;;;37.15;24.55;;;;;;;;;;4922418;29;20486;-72
2021/10/09 17:12:22;;;;;;;35.67;22.63;;;;;;;;;;4914709;29;20111;-71
2021/10/09 17:14:49;;;;;;;37.05;23.63;;;;;;;;;;4915664;29;20025;-71
2021/10/09 17:17:15;;;;;;;39.78;24.45;;;;;;;;;;4915842;29;20040;-69
2021/10/09 17:19:41;;;;;;;37.40;25.58;;;;;;;;;;4914899;29;20565;-72
2021/10/09 17:22:08;;;;;;;46.47;26.38;;;;;;;;;;4917612;29;20058;-70